createdAt,value
2017-04-19T00:00:26.033Z,72.5
2017-04-19T00:01:28.380Z,72.5
2017-04-19T00:02:30.717Z,72.3
2017-04-19T00:03:33.862Z,72.5
2017-04-19T00:04:36.202Z,72.5
2017-04-19T00:05:38.599Z,72.6
2017-04-19T00:07:43.345Z,71.9
2017-04-19T00:08:46.439Z,71.5
2017-04-19T00:10:51.182Z,71.6
2017-04-19T00:11:53.515Z,71.8
2017-04-19T00:12:56.359Z,72.4
2017-04-19T00:13:58.957Z,72.2
2017-04-19T00:15:01.305Z,72
2017-04-19T00:16:03.648Z,72.1
2017-04-19T00:17:05.989Z,72.2
2017-04-19T00:19:11.489Z,72.4
2017-04-19T00:20:13.827Z,72.5
2017-04-19T00:21:16.402Z,72.6
2017-04-19T00:22:18.796Z,72.4
2017-04-19T00:23:21.141Z,72.6
2017-04-19T00:24:24.234Z,72.8
2017-04-19T00:25:27.146Z,72.7
2017-04-19T00:26:28.717Z,72.4
2017-04-19T00:27:31.437Z,72.5
2017-04-19T00:28:34.011Z,72.6
2017-04-19T00:29:36.519Z,72.6
2017-04-19T00:30:38.865Z,72.7
2017-04-19T00:31:41.073Z,72.8
2017-04-19T00:32:43.926Z,73.6
2017-04-19T00:33:46.269Z,72.9
2017-04-19T00:34:49.417Z,72.7
2017-04-19T00:35:52.319Z,73.2
2017-04-19T00:36:54.151Z,73.4
2017-04-19T00:37:56.494Z,73.5
2017-04-19T00:38:58.836Z,73.7
2017-04-19T00:40:01.933Z,74.4
2017-04-19T00:41:04.274Z,74.2
2017-04-19T00:42:06.617Z,74.3
2017-04-19T00:43:08.960Z,74.1
2017-04-19T00:45:14.461Z,74.9
2017-04-19T00:46:16.801Z,74.4
2017-04-19T00:47:19.008Z,74.3
2017-04-19T00:48:22.419Z,74.6
2017-04-19T00:49:24.254Z,74.6
2017-04-19T00:50:26.705Z,74.8
2017-04-19T00:51:28.963Z,74.5
2017-04-19T00:52:31.805Z,75.5
2017-04-19T00:54:36.548Z,74.9
2017-04-19T00:55:39.697Z,75.2
2017-04-19T00:56:42.036Z,76.2
2017-04-19T00:57:44.247Z,74.8
2017-04-19T00:58:46.959Z,75.3
2017-04-19T00:59:49.312Z,75.6
2017-04-19T01:00:51.960Z,75.1
2017-04-19T01:01:54.337Z,75.4
2017-04-19T01:02:56.682Z,75.2
2017-04-19T01:03:59.527Z,75
2017-04-19T01:05:01.864Z,76.1
2017-04-19T01:06:04.605Z,75.2
2017-04-19T01:08:09.363Z,75.4
2017-04-19T01:09:12.072Z,75.8
2017-04-19T01:10:14.408Z,75.6
2017-04-19T01:12:19.821Z,75.7
2017-04-19T01:13:22.170Z,75.5
2017-04-19T01:14:24.514Z,75.7
2017-04-19T01:15:26.854Z,75.8
2017-04-19T01:16:29.698Z,75.5
2017-04-19T01:17:32.337Z,75.3
2017-04-19T01:18:34.673Z,75.8
2017-04-19T01:19:36.880Z,75.6
2017-04-19T01:20:39.721Z,75.9
2017-04-19T01:21:42.061Z,75.7
2017-04-19T01:22:44.649Z,75.8
2017-04-19T01:23:46.857Z,76
2017-04-19T01:24:49.709Z,76
2017-04-19T01:25:52.047Z,76.3
2017-04-19T01:26:54.389Z,77.1
2017-04-19T01:27:57.535Z,76.3
2017-04-19T01:28:59.745Z,76.4
2017-04-19T01:30:02.093Z,76.3
2017-04-19T01:31:04.437Z,76.4
2017-04-19T01:32:07.285Z,76.9
2017-04-19T01:33:09.743Z,76.2
2017-04-19T01:34:12.084Z,76.6
2017-04-19T01:35:14.425Z,76.6
2017-04-19T01:36:17.270Z,76.5
2017-04-19T01:37:19.343Z,76.4
2017-04-19T01:38:22.436Z,77.3
2017-04-19T01:39:24.781Z,76.7
2017-04-19T01:40:27.125Z,77
2017-04-19T01:42:32.367Z,76.9
2017-04-19T01:43:34.687Z,77.1
2017-04-19T01:44:37.030Z,77
2017-04-19T01:45:39.606Z,77.2
2017-04-19T01:46:42.317Z,77.2
2017-04-19T01:47:44.664Z,77.4
2017-04-19T01:48:47.308Z,77.1
2017-04-19T01:49:49.648Z,77.5
2017-04-19T01:50:52.357Z,77.4
2017-04-19T01:51:54.425Z,77.5
2017-04-19T01:52:57.266Z,77.5
2017-04-19T01:53:59.900Z,78.2
2017-04-19T01:55:02.237Z,77.8
2017-04-19T01:56:04.576Z,77.8
2017-04-19T01:57:07.424Z,77.7
2017-04-19T01:58:09.771Z,78.3
2017-04-19T01:59:12.411Z,77.8
2017-04-19T02:01:17.149Z,77.9
2017-04-19T02:02:19.857Z,78.2
2017-04-19T02:03:22.199Z,78.4
2017-04-19T02:04:24.854Z,78
2017-04-19T02:05:27.195Z,78.2
2017-04-19T02:06:29.531Z,78
2017-04-19T02:08:34.778Z,78.1
2017-04-19T02:09:37.419Z,78
2017-04-19T02:10:39.755Z,78.1
2017-04-19T02:12:44.496Z,78.7
2017-04-19T02:13:47.337Z,78.1
2017-04-19T02:14:49.930Z,78.5
2017-04-19T02:15:52.136Z,78
2017-04-19T02:16:54.476Z,78.4
2017-04-19T02:18:59.718Z,78.3
2017-04-19T02:20:02.358Z,78.3
2017-04-19T02:21:04.567Z,78.4
2017-04-19T02:22:07.407Z,78.3
2017-04-19T02:23:09.675Z,78.4
2017-04-19T02:24:12.386Z,78.6
2017-04-19T02:25:15.027Z,78.4
2017-04-19T02:26:17.366Z,78.4
2017-04-19T02:27:19.708Z,79
2017-04-19T02:28:22.050Z,78.3
2017-04-19T02:29:24.895Z,78.4
2017-04-19T02:30:27.539Z,78.6
2017-04-19T02:31:29.887Z,78.6
2017-04-19T02:33:34.497Z,78.2
2017-04-19T02:34:37.342Z,79.1
2017-04-19T02:35:40.038Z,78.4
2017-04-19T02:37:44.781Z,78.4
2017-04-19T02:38:47.190Z,78.6
2017-04-19T02:39:49.528Z,78.7
2017-04-19T02:40:52.673Z,78.7
2017-04-19T02:41:54.508Z,78.8
2017-04-19T02:42:57.352Z,78.8
2017-04-19T02:43:59.686Z,78.9
2017-04-19T02:45:02.029Z,79.1
2017-04-19T02:46:05.734Z,79
2017-04-19T02:47:06.930Z,79.2
2017-04-19T02:48:09.769Z,79.1
2017-04-19T02:49:12.107Z,79
2017-04-19T02:50:14.501Z,78.9
2017-04-19T02:51:17.504Z,79.1
2017-04-19T02:54:24.447Z,78.8
2017-04-19T02:55:27.287Z,79.3
2017-04-19T02:56:29.925Z,79.3
2017-04-19T02:57:32.265Z,79.1
2017-04-19T02:58:34.467Z,79.1
2017-04-19T02:59:37.369Z,79.3
2017-04-19T03:00:39.575Z,79.2
2017-04-19T03:02:44.954Z,79.2
2017-04-19T03:03:47.299Z,79.2
2017-04-19T03:04:49.643Z,79.5
2017-04-19T03:05:52.121Z,79.2
2017-04-19T03:06:54.460Z,79.2
2017-04-19T03:07:57.606Z,79.3
2017-04-19T03:08:59.446Z,79.7
2017-04-19T03:10:02.288Z,79.4
2017-04-19T03:11:04.559Z,79.2
2017-04-19T03:12:06.902Z,79.3
2017-04-19T03:13:10.056Z,79.1
2017-04-19T03:14:11.762Z,79.6
2017-04-19T03:15:14.635Z,79.6
2017-04-19T03:16:16.978Z,79.4
2017-04-19T03:17:19.817Z,79.5
2017-04-19T03:18:22.409Z,79.5
2017-04-19T03:19:24.617Z,79.5
2017-04-19T03:20:26.983Z,79.4
2017-04-19T03:21:29.823Z,79.5
2017-04-19T03:22:32.030Z,79.4
2017-04-19T03:24:37.535Z,79.5
2017-04-19T03:25:39.369Z,79.3
2017-04-19T03:26:42.209Z,79.2
2017-04-19T03:27:44.551Z,78.9
2017-04-19T03:28:46.888Z,79
2017-04-19T03:29:50.029Z,79.4
2017-04-19T03:30:51.861Z,79.4
2017-04-19T03:31:54.760Z,79.4
2017-04-19T03:32:57.135Z,79.1
2017-04-19T03:33:59.471Z,79.2
2017-04-19T03:35:02.234Z,78.8
2017-04-19T03:36:04.579Z,78.9
2017-04-19T03:37:06.913Z,78.9
2017-04-19T03:38:09.761Z,79
2017-04-19T03:39:11.967Z,78.9
2017-04-19T03:40:14.608Z,78.9
2017-04-19T03:41:16.812Z,79.1
2017-04-19T03:42:19.665Z,79.5
2017-04-19T03:43:22.237Z,79.2
2017-04-19T03:44:24.578Z,79
2017-04-19T03:45:27.170Z,79.3
2017-04-19T03:47:31.910Z,79.1
2017-04-19T03:48:34.619Z,79.4
2017-04-19T03:49:36.978Z,79.2
2017-04-19T03:50:39.564Z,79.2
2017-04-19T03:51:41.765Z,79.6
2017-04-19T03:52:44.606Z,79.2
2017-04-19T03:53:46.811Z,79.5
2017-04-19T03:54:49.657Z,79.3
2017-04-19T03:55:52.295Z,79.2
2017-04-19T03:56:54.500Z,79
2017-04-19T03:57:56.838Z,79.3
2017-04-19T03:58:59.685Z,79.2
2017-04-19T04:00:02.026Z,78.7
2017-04-19T04:01:04.598Z,78.9
2017-04-19T04:02:06.939Z,79
2017-04-19T04:03:09.370Z,79
2017-04-19T04:04:12.214Z,79.1
2017-04-19T04:05:14.557Z,79
2017-04-19T04:06:17.063Z,78.9
2017-04-19T04:07:19.399Z,78.8
2017-04-19T04:08:22.802Z,79
2017-04-19T04:09:24.638Z,78.8
2017-04-19T04:10:26.975Z,78.8
2017-04-19T04:11:29.567Z,79
2017-04-19T04:12:31.912Z,78.6
2017-04-19T04:13:34.254Z,78.7
2017-04-19T04:14:37.097Z,78.6
2017-04-19T04:15:39.434Z,78.6
2017-04-19T04:16:42.215Z,78.4
2017-04-19T04:17:44.330Z,78.4
2017-04-19T04:18:47.172Z,78.4
2017-04-19T04:19:49.506Z,78.1
2017-04-19T04:20:51.905Z,78.2
2017-04-19T04:21:54.493Z,78
2017-04-19T04:22:56.830Z,78.4
2017-04-19T04:23:59.675Z,78.2
2017-04-19T04:25:02.050Z,78.2
2017-04-19T04:26:04.390Z,77.8
2017-04-19T04:27:06.978Z,77.6
2017-04-19T04:28:09.314Z,77.7
2017-04-19T04:29:12.019Z,78.1
2017-04-19T04:31:16.765Z,77.8
2017-04-19T04:32:19.857Z,77.7
2017-04-19T04:33:21.695Z,77.7
2017-04-19T04:34:24.538Z,78
2017-04-19T04:35:26.875Z,77.4
2017-04-19T04:36:29.216Z,77.1
2017-04-19T04:37:32.292Z,77.4
2017-04-19T04:38:34.652Z,77.6
2017-04-19T04:39:36.992Z,77.6
2017-04-19T04:40:39.325Z,77.8
2017-04-19T04:41:41.661Z,78.1
2017-04-19T04:42:44.618Z,77
2017-04-19T04:43:46.961Z,77.1
2017-04-19T04:44:49.304Z,77.1
2017-04-19T04:45:51.967Z,77.1
2017-04-19T04:46:54.310Z,77.1
2017-04-19T04:47:56.950Z,77.1
2017-04-19T04:48:59.290Z,77
2017-04-19T04:50:01.642Z,77.3
2017-04-19T04:51:04.488Z,76.9
2017-04-19T04:52:06.828Z,76.5
2017-04-19T04:53:09.977Z,76.6
2017-04-19T04:54:11.809Z,76.2
2017-04-19T04:55:14.012Z,75.8
2017-04-19T04:56:16.777Z,76.4
2017-04-19T04:57:19.112Z,75.6
2017-04-19T04:58:22.211Z,75.4
2017-04-19T05:00:26.956Z,75.7
2017-04-19T05:01:29.490Z,75.7
2017-04-19T05:02:31.698Z,75.1
2017-04-19T05:03:34.792Z,75.5
2017-04-19T05:04:36.629Z,75.4
2017-04-19T05:05:39.465Z,75.5
2017-04-19T05:06:41.804Z,75.7
2017-04-19T05:07:44.141Z,76.2
2017-04-19T05:08:47.235Z,75.5
2017-04-19T05:09:49.068Z,75.5
2017-04-19T05:10:51.911Z,75.5
2017-04-19T05:11:54.248Z,75.3
2017-04-19T05:12:56.587Z,75.1
2017-04-19T05:15:02.001Z,75.4
2017-04-19T05:16:04.337Z,75.3
2017-04-19T05:17:06.673Z,75.4
2017-04-19T05:18:09.013Z,75.3
2017-04-19T05:19:11.849Z,76.5
2017-04-19T05:20:14.439Z,76.2
2017-04-19T05:21:16.779Z,75.5
2017-04-19T05:22:19.122Z,75
2017-04-19T05:23:21.964Z,74.8
2017-04-19T05:24:24.302Z,75.5
2017-04-19T05:25:26.887Z,74.7
2017-04-19T05:26:29.230Z,74.9
2017-04-19T05:27:31.566Z,74.9
2017-04-19T05:28:34.411Z,74.4
2017-04-19T05:29:36.773Z,73.6
2017-04-19T05:30:39.411Z,74.3
2017-04-19T05:31:41.751Z,73.8
2017-04-19T05:33:46.491Z,73.5
2017-04-19T05:34:49.338Z,74
2017-04-19T05:35:51.977Z,72.8
2017-04-19T05:36:54.177Z,72
2017-04-19T05:37:56.888Z,71.1
2017-04-19T05:38:59.226Z,70.5
2017-04-19T05:40:01.590Z,69.6
2017-04-19T05:42:07.100Z,69.3
2017-04-19T05:43:09.440Z,69.1
2017-04-19T05:44:11.773Z,68.4
2017-04-19T05:45:13.972Z,68.3
2017-04-19T05:46:16.820Z,68.7
2017-04-19T05:47:19.273Z,67.7
2017-04-19T05:48:21.612Z,67.3
2017-04-19T05:49:24.453Z,67.6
2017-04-19T05:50:26.800Z,66.6
2017-04-19T05:51:29.794Z,67.6
2017-04-19T05:52:31.745Z,67.7
2017-04-19T05:53:34.450Z,68.1
2017-04-19T05:54:36.572Z,64.9
2017-04-19T05:55:39.466Z,65.8
2017-04-19T05:56:41.931Z,66.9
2017-04-19T05:57:44.533Z,67.5
2017-04-19T05:58:46.514Z,65.9
2017-04-19T05:59:49.352Z,63.3
2017-04-19T06:00:51.692Z,65.2
2017-04-19T06:01:54.534Z,64.3
2017-04-19T06:02:57.119Z,61.6
2017-04-19T06:03:59.457Z,62.4
2017-04-19T06:05:02.353Z,62
2017-04-19T06:06:04.186Z,61.5
2017-04-19T06:07:07.028Z,61.6
2017-04-19T06:08:09.620Z,62.1
2017-04-19T06:09:11.956Z,63.3
2017-04-19T06:10:14.159Z,61.8
2017-04-19T06:11:17.006Z,59.3
2017-04-19T06:12:19.346Z,60.2
2017-04-19T06:13:21.941Z,59.8
2017-04-19T06:14:24.337Z,57
2017-04-19T06:15:26.907Z,56.9
2017-04-19T06:16:29.246Z,58.1
2017-04-19T06:17:32.084Z,58
2017-04-19T06:18:34.724Z,59.1
2017-04-19T06:19:37.066Z,57.7
2017-04-19T06:20:39.405Z,57.3
2017-04-19T06:21:42.249Z,56.6
2017-04-19T06:22:44.585Z,58.2
2017-04-19T06:23:47.181Z,60.1
2017-04-19T06:24:49.382Z,59.4
2017-04-19T06:25:52.788Z,57.5
2017-04-19T06:26:54.497Z,59.7
2017-04-19T06:27:57.336Z,58.1
2017-04-19T06:28:59.920Z,58.1
2017-04-19T06:30:02.257Z,58.9
2017-04-19T06:31:04.460Z,58.7
2017-04-19T06:32:07.226Z,59.8
2017-04-19T06:33:09.562Z,58.7
2017-04-19T06:34:12.654Z,58.9
2017-04-19T06:35:14.493Z,56.8
2017-04-19T06:36:17.335Z,58
2017-04-19T06:37:19.671Z,59.6
2017-04-19T06:38:22.517Z,57.6
2017-04-19T06:39:25.159Z,55.8
2017-04-19T06:40:27.493Z,56.6
2017-04-19T06:41:29.829Z,55.9
2017-04-19T06:42:32.167Z,57.5
2017-04-19T06:43:35.010Z,58.1
2017-04-19T06:44:37.723Z,59
2017-04-19T06:45:40.063Z,59.9
2017-04-19T06:46:42.413Z,57.2
2017-04-19T06:47:44.752Z,56.6
2017-04-19T06:48:47.525Z,56.2
2017-04-19T06:49:50.118Z,53.8
2017-04-19T06:50:52.460Z,54.3
2017-04-19T06:51:55.298Z,54.8
2017-04-19T06:52:57.637Z,56.5
2017-04-19T06:54:00.551Z,54.6
2017-04-19T06:55:02.686Z,55.2
2017-04-19T06:56:04.753Z,55.6
2017-04-19T06:57:07.593Z,54.8
2017-04-19T06:58:09.931Z,53.3
2017-04-19T06:59:12.781Z,53.3
2017-04-19T07:00:15.369Z,55.2
2017-04-19T07:01:17.707Z,52
2017-04-19T07:02:20.415Z,52.6
2017-04-19T07:03:22.755Z,54.8
2017-04-19T07:04:25.092Z,54.8
2017-04-19T07:05:28.234Z,54
2017-04-19T07:06:30.572Z,52.5
2017-04-19T07:07:32.779Z,51.5
2017-04-19T07:08:35.620Z,51.1
2017-04-19T07:09:37.978Z,52
2017-04-19T07:10:40.572Z,51.7
2017-04-19T07:11:42.909Z,53
2017-04-19T07:12:45.248Z,53
2017-04-19T07:13:48.085Z,50.7
2017-04-19T07:15:53.127Z,50.8
2017-04-19T07:16:55.334Z,49.6
2017-04-19T07:17:58.176Z,49.6
2017-04-19T07:19:00.518Z,52.1
2017-04-19T07:20:03.233Z,51.4
2017-04-19T07:21:05.882Z,49.1
2017-04-19T07:22:08.220Z,49.7
2017-04-19T07:23:10.556Z,49.5
2017-04-19T07:24:13.396Z,50.1
2017-04-19T07:25:15.737Z,51.4
2017-04-19T07:26:18.379Z,50.9
2017-04-19T07:28:23.172Z,50.1
2017-04-19T07:29:26.013Z,49
2017-04-19T07:30:28.351Z,48.3
2017-04-19T07:31:30.991Z,47.7
2017-04-19T07:32:33.327Z,47.7
2017-04-19T07:33:36.030Z,47.3
2017-04-19T07:34:39.293Z,48
2017-04-19T07:35:40.995Z,48.8
2017-04-19T07:36:43.910Z,48.8
2017-04-19T07:37:46.311Z,47.3
2017-04-19T07:38:48.650Z,49.2
2017-04-19T07:39:50.988Z,48.5
2017-04-19T07:40:53.690Z,48.9
2017-04-19T07:41:56.279Z,48.7
2017-04-19T07:42:58.485Z,46.3
2017-04-19T07:44:01.326Z,47
2017-04-19T07:45:03.531Z,46.6
2017-04-19T07:46:06.376Z,47.7
2017-04-19T07:47:09.063Z,47.7
2017-04-19T07:48:11.399Z,47.3
2017-04-19T07:49:13.740Z,46.9
2017-04-19T07:50:16.447Z,46.4
2017-04-19T07:52:22.024Z,47.5
2017-04-19T07:53:23.869Z,48.5
2017-04-19T07:54:26.709Z,49
2017-04-19T07:55:29.052Z,48.1
2017-04-19T07:56:31.391Z,49.8
2017-04-19T07:57:34.400Z,47
2017-04-19T07:58:36.735Z,48.5
2017-04-19T07:59:38.938Z,46.9
2017-04-19T08:00:41.782Z,47.6
2017-04-19T08:01:44.120Z,48.8
2017-04-19T08:02:47.127Z,50.2
2017-04-19T08:03:49.473Z,49.2
2017-04-19T08:04:51.676Z,49.7
2017-04-19T08:05:54.244Z,50.2
2017-04-19T08:06:57.084Z,50.5
2017-04-19T08:07:59.591Z,48.7
2017-04-19T08:09:01.755Z,48.5
2017-04-19T08:10:04.597Z,48.8
2017-04-19T08:11:06.935Z,46.6
2017-04-19T08:12:09.778Z,47.2
2017-04-19T08:13:12.420Z,48.6
2017-04-19T08:14:14.626Z,44.7
2017-04-19T08:15:17.526Z,43
2017-04-19T08:16:19.894Z,44.2
2017-04-19T08:17:22.096Z,45.2
2017-04-19T08:18:25.192Z,45.5
2017-04-19T08:19:27.308Z,43.3
2017-04-19T08:20:29.646Z,43.6
2017-04-19T08:21:32.487Z,45.3
2017-04-19T08:22:34.823Z,44.5
2017-04-19T08:23:37.914Z,45.7
2017-04-19T08:24:40.126Z,46.6
2017-04-19T08:25:42.197Z,46.2
2017-04-19T08:26:45.138Z,46.7
2017-04-19T08:27:47.475Z,45.3
2017-04-19T08:28:50.495Z,46.5
2017-04-19T08:29:52.835Z,45.5
2017-04-19T08:30:55.416Z,45.1
2017-04-19T08:31:57.675Z,46.6
2017-04-19T08:32:59.880Z,46
2017-04-19T08:34:02.956Z,45.9
2017-04-19T08:35:05.165Z,46.8
2017-04-19T08:36:08.009Z,47.2
2017-04-19T08:37:10.211Z,45.8
2017-04-19T08:39:15.763Z,45.9
2017-04-19T08:40:18.242Z,46.8
2017-04-19T08:41:20.587Z,47
2017-04-19T08:42:23.292Z,45.7
2017-04-19T08:43:25.635Z,45.8
2017-04-19T08:44:28.137Z,46.1
2017-04-19T08:45:30.852Z,46.7
2017-04-19T08:46:33.188Z,47.9
2017-04-19T08:47:35.395Z,47.4
2017-04-19T08:48:38.104Z,48.3
2017-04-19T08:49:41.067Z,48.7
2017-04-19T08:50:43.266Z,49.1
2017-04-19T08:51:46.105Z,46.4
2017-04-19T08:52:48.442Z,46.7
2017-04-19T08:53:50.786Z,47.7
2017-04-19T08:54:53.935Z,47.6
2017-04-19T08:55:56.135Z,47.1
2017-04-19T08:56:58.475Z,48
2017-04-19T08:58:00.814Z,45.9
2017-04-19T08:59:03.650Z,48.1
2017-04-19T09:00:06.100Z,48.8
2017-04-19T09:01:08.671Z,46.8
2017-04-19T09:02:11.243Z,47.3
2017-04-19T09:03:13.449Z,46.3
2017-04-19T09:04:16.290Z,46
2017-04-19T09:05:18.797Z,45.7
2017-04-19T09:06:21.001Z,46.4
2017-04-19T09:07:23.713Z,46.9
2017-04-19T09:08:26.559Z,47
2017-04-19T09:09:28.938Z,46.8
2017-04-19T09:10:31.658Z,47.8
2017-04-19T09:11:33.867Z,47.2
2017-04-19T09:12:36.200Z,47.3
2017-04-19T09:13:39.039Z,44.1
2017-04-19T09:14:41.381Z,44.1
2017-04-19T09:15:44.484Z,44.9
2017-04-19T09:16:46.325Z,45.6
2017-04-19T09:17:49.167Z,46.6
2017-04-19T09:18:51.993Z,46
2017-04-19T09:19:54.192Z,47.5
2017-04-19T09:20:57.148Z,48.5
2017-04-19T09:21:58.979Z,49.1
2017-04-19T09:23:01.684Z,49.5
2017-04-19T09:24:05.093Z,50.2
2017-04-19T09:25:06.795Z,50.4
2017-04-19T09:26:09.807Z,49.1
2017-04-19T09:27:12.009Z,50
2017-04-19T09:28:14.213Z,48.9
2017-04-19T09:29:16.787Z,48.9
2017-04-19T09:30:19.628Z,48.3
2017-04-19T09:31:22.783Z,47.2
2017-04-19T09:32:24.622Z,49
2017-04-19T09:33:26.826Z,48.8
2017-04-19T09:34:29.534Z,49.3
2017-04-19T09:35:32.251Z,48.8
2017-04-19T09:36:34.842Z,48
2017-04-19T09:37:37.176Z,45.1
2017-04-19T09:38:39.885Z,42.2
2017-04-19T09:39:42.220Z,42.9
2017-04-19T09:40:44.794Z,42.3
2017-04-19T09:41:47.515Z,42.9
2017-04-19T09:42:49.849Z,41.3
2017-04-19T09:43:52.184Z,40.9
2017-04-19T09:44:55.025Z,41.5
2017-04-19T09:45:57.366Z,42.1
2017-04-19T09:47:00.519Z,41.3
2017-04-19T09:48:02.398Z,42.7
2017-04-19T09:49:05.236Z,44.2
2017-04-19T09:50:07.441Z,45.2
2017-04-19T09:51:10.339Z,45.6
2017-04-19T09:52:12.980Z,46.2
2017-04-19T09:53:15.314Z,46.4
2017-04-19T09:55:20.349Z,47.2
2017-04-19T09:56:22.731Z,47.9
2017-04-19T09:57:25.825Z,47.6
2017-04-19T09:58:27.716Z,49.2
2017-04-19T09:59:30.561Z,49
2017-04-19T10:00:32.901Z,49.1
2017-04-19T10:01:35.241Z,48.6
2017-04-19T10:02:38.337Z,48.8
2017-04-19T10:03:40.678Z,48.7
2017-04-19T10:04:43.015Z,48
2017-04-19T10:05:45.721Z,48.2
2017-04-19T10:06:48.062Z,47.4
2017-04-19T10:07:51.207Z,46.1
2017-04-19T10:08:53.040Z,46.6
2017-04-19T10:09:55.751Z,45.3
2017-04-19T10:10:58.114Z,45.1
2017-04-19T10:12:00.957Z,44.9
2017-04-19T10:13:03.544Z,45.5
2017-04-19T10:14:05.886Z,45.6
2017-04-19T10:15:08.106Z,44.4
2017-04-19T10:16:10.869Z,43.9
2017-04-19T10:17:13.833Z,45.3
2017-04-19T10:18:16.206Z,44.5
2017-04-19T10:19:18.548Z,44.5
2017-04-19T10:21:23.795Z,44.8
2017-04-19T10:22:25.995Z,44.7
2017-04-19T10:23:28.952Z,44.6
2017-04-19T10:24:31.150Z,44.2
2017-04-19T10:25:34.065Z,45
2017-04-19T10:26:36.434Z,45.4
2017-04-19T10:27:38.694Z,45.1
2017-04-19T10:28:41.836Z,44.9
2017-04-19T10:29:43.669Z,45
2017-04-19T10:30:46.509Z,45.7
2017-04-19T10:31:48.842Z,46.3
2017-04-19T10:32:51.549Z,46.4
2017-04-19T10:33:54.558Z,46.5
2017-04-19T10:34:56.787Z,45.7
2017-04-19T10:35:59.133Z,45.2
2017-04-19T10:37:01.523Z,45.9
2017-04-19T10:38:04.804Z,46
2017-04-19T10:39:06.815Z,47.6
2017-04-19T10:40:09.019Z,47
2017-04-19T10:41:11.719Z,46.2
2017-04-19T10:42:14.463Z,46.5
2017-04-19T10:43:16.662Z,47.8
2017-04-19T10:44:19.754Z,46.7
2017-04-19T10:45:22.150Z,45.3
2017-04-19T10:46:24.490Z,45.8
2017-04-19T10:48:29.729Z,47.4
2017-04-19T10:49:32.328Z,46.9
2017-04-19T10:50:34.661Z,47.1
2017-04-19T10:51:37.374Z,48
2017-04-19T10:52:39.574Z,46.7
2017-04-19T10:53:42.414Z,46.3
2017-04-19T10:54:45.001Z,46.8
2017-04-19T10:55:47.207Z,48.3
2017-04-19T10:56:50.084Z,47.6
2017-04-19T10:57:52.423Z,47.1
2017-04-19T10:58:54.763Z,47.4
2017-04-19T10:59:57.766Z,47.1
2017-04-19T11:00:59.967Z,47.2
2017-04-19T11:02:02.697Z,45.8
2017-04-19T11:03:05.031Z,47.1
2017-04-19T11:04:08.302Z,45.7
2017-04-19T11:05:10.302Z,45.3
2017-04-19T11:06:12.506Z,45.1
2017-04-19T11:07:15.906Z,45.9
2017-04-19T11:08:17.744Z,47.2
2017-04-19T11:09:19.946Z,48.1
2017-04-19T11:10:23.033Z,48.1
2017-04-19T11:11:25.117Z,49.3
2017-04-19T11:12:28.517Z,49.9
2017-04-19T11:13:30.714Z,48.8
2017-04-19T11:14:33.057Z,49
2017-04-19T11:15:35.762Z,49
2017-04-19T11:16:38.097Z,48.7
2017-04-19T11:17:40.992Z,48
2017-04-19T11:18:43.194Z,48.3
2017-04-19T11:19:45.534Z,48.3
2017-04-19T11:20:48.593Z,49.4
2017-04-19T11:21:50.799Z,49.4
2017-04-19T11:22:53.139Z,48.8
2017-04-19T11:24:58.385Z,49.2
2017-04-19T11:26:00.892Z,49.9
2017-04-19T11:27:03.204Z,49
2017-04-19T11:28:05.908Z,48.1
2017-04-19T11:29:08.616Z,47.6
2017-04-19T11:30:11.325Z,48.1
2017-04-19T11:31:13.837Z,48.8
2017-04-19T11:32:16.170Z,49.4
2017-04-19T11:34:21.411Z,48.8
2017-04-19T11:35:23.618Z,47.2
2017-04-19T11:36:26.711Z,47.8
2017-04-19T11:37:28.920Z,47.1
2017-04-19T11:38:31.489Z,47.4
2017-04-19T11:39:33.703Z,47.2
2017-04-19T11:40:36.544Z,46.3
2017-04-19T11:41:39.117Z,46.6
2017-04-19T11:42:41.689Z,46.1
2017-04-19T11:43:43.764Z,44.1
2017-04-19T11:44:46.603Z,45.8
2017-04-19T11:45:48.824Z,47.2
2017-04-19T11:46:51.702Z,45.3
2017-04-19T11:47:54.041Z,46.1
2017-04-19T11:48:56.874Z,44.5
2017-04-19T11:49:59.207Z,44.5
2017-04-19T11:51:02.043Z,44
2017-04-19T11:52:04.681Z,45.9
2017-04-19T11:53:07.014Z,46.2
2017-04-19T11:54:09.354Z,44.9
2017-04-19T11:55:12.058Z,45.1
2017-04-19T11:56:14.257Z,45.5
2017-04-19T11:57:17.396Z,46.7
2017-04-19T11:58:19.730Z,47.5
2017-04-19T11:59:22.433Z,47.2
2017-04-19T12:01:27.172Z,46.5
2017-04-19T12:02:30.188Z,46.3
2017-04-19T12:03:32.520Z,47.8
2017-04-19T12:04:34.720Z,47.5
2017-04-19T12:05:37.559Z,49.1
2017-04-19T12:06:39.895Z,49.2
2017-04-19T12:07:42.857Z,49.4
2017-04-19T12:08:45.774Z,51
2017-04-19T12:09:47.612Z,50.5
2017-04-19T12:10:50.317Z,51.2
2017-04-19T12:11:52.669Z,50.1
2017-04-19T12:12:55.398Z,51.2
2017-04-19T12:13:57.598Z,50.3
2017-04-19T12:15:00.436Z,49.8
2017-04-19T12:16:03.144Z,49.7
2017-04-19T12:17:05.343Z,49.7
2017-04-19T12:18:08.484Z,49.3
2017-04-19T12:19:10.687Z,49.4
2017-04-19T12:20:13.024Z,47.1
2017-04-19T12:21:16.421Z,48.5
2017-04-19T12:22:18.122Z,46.5
2017-04-19T12:23:21.269Z,46.2
2017-04-19T12:24:23.469Z,46.5
2017-04-19T12:25:25.671Z,45.4
2017-04-19T12:26:28.377Z,44.4
2017-04-19T12:27:30.769Z,44.6
2017-04-19T12:28:33.727Z,44.9
2017-04-19T12:29:36.067Z,44.8
2017-04-19T12:30:38.403Z,45.6
2017-04-19T12:31:41.366Z,46.9
2017-04-19T12:32:43.768Z,46
2017-04-19T12:33:46.419Z,44.7
2017-04-19T12:34:48.757Z,46.3
2017-04-19T12:35:51.092Z,46.5
2017-04-19T12:36:53.648Z,45.2
2017-04-19T12:37:56.351Z,44.4
2017-04-19T12:38:59.495Z,44.4
2017-04-19T12:40:01.334Z,43.4
2017-04-19T12:41:04.317Z,40.9
2017-04-19T12:42:06.605Z,39.3
2017-04-19T12:43:09.025Z,39.6
2017-04-19T12:44:12.028Z,41.1
2017-04-19T12:45:14.366Z,43.4
2017-04-19T12:47:19.115Z,46
2017-04-19T12:48:21.959Z,46.8
2017-04-19T12:49:25.006Z,46.8
2017-04-19T12:50:26.838Z,46.9
2017-04-19T12:51:29.684Z,46.9
2017-04-19T12:52:32.041Z,45.7
2017-04-19T12:53:34.884Z,46.8
2017-04-19T12:54:37.522Z,46.2
2017-04-19T12:56:42.265Z,45.5
2017-04-19T12:57:45.104Z,46.3
2017-04-19T12:58:47.441Z,45.8
2017-04-19T12:59:50.030Z,46.3
2017-04-19T13:00:52.368Z,44.6
2017-04-19T13:01:55.079Z,45.7
2017-04-19T13:02:57.426Z,45.8
2017-04-19T13:04:00.269Z,46.3
2017-04-19T13:05:03.276Z,46.7
2017-04-19T13:06:05.481Z,45.3
2017-04-19T13:07:08.049Z,45.4
2017-04-19T13:08:10.316Z,46.3
2017-04-19T13:09:13.157Z,45.7
2017-04-19T13:10:15.474Z,46.6
2017-04-19T13:11:18.179Z,46.2
2017-04-19T13:12:20.383Z,46.7
2017-04-19T13:13:22.953Z,46
2017-04-19T13:14:25.658Z,46.4
2017-04-19T13:15:28.751Z,43.9
2017-04-19T13:16:30.452Z,44.4
2017-04-19T13:17:33.290Z,43.3
2017-04-19T13:18:36.126Z,44.2
2017-04-19T13:19:38.324Z,43.4
2017-04-19T13:20:41.197Z,43.4
2017-04-19T13:21:43.266Z,43.9
2017-04-19T13:23:48.371Z,42.8
2017-04-19T13:24:51.218Z,44.6
2017-04-19T13:25:54.228Z,44.8
2017-04-19T13:27:58.836Z,43.7
2017-04-19T13:29:01.539Z,43.1
2017-04-19T13:30:03.876Z,44.6
2017-04-19T13:31:06.885Z,44.6
2017-04-19T13:32:09.221Z,44.9
2017-04-19T13:33:11.927Z,44.2
2017-04-19T13:34:14.128Z,45.2
2017-04-19T13:35:16.827Z,45.6
2017-04-19T13:36:19.834Z,46
2017-04-19T13:37:21.665Z,46.3
2017-04-19T13:38:24.503Z,47.4
2017-04-19T13:39:26.896Z,46.7
2017-04-19T13:40:29.549Z,47.6
2017-04-19T13:41:32.444Z,47.3
2017-04-19T13:42:34.565Z,48.5
2017-04-19T13:43:37.960Z,48.1
2017-04-19T13:44:39.794Z,47.7
2017-04-19T13:45:42.128Z,48.1
2017-04-19T13:46:45.083Z,49
2017-04-19T13:47:47.287Z,48.5
2017-04-19T13:48:49.991Z,48.3
2017-04-19T13:49:52.694Z,48.7
2017-04-19T13:50:55.254Z,49
2017-04-19T13:51:57.891Z,50.2
2017-04-19T13:53:00.225Z,49.3
2017-04-19T13:54:02.619Z,49.9
2017-04-19T13:55:05.464Z,49.8
2017-04-19T13:56:07.819Z,48.2
2017-04-19T13:57:10.921Z,48.3
2017-04-19T13:58:13.255Z,48.6
2017-04-19T13:59:15.592Z,48.8
2017-04-19T14:00:17.930Z,47.1
2017-04-19T14:01:20.772Z,46.6
2017-04-19T14:02:23.415Z,47.2
2017-04-19T14:03:25.614Z,47.5
2017-04-19T14:04:28.320Z,47.2
2017-04-19T14:05:31.167Z,47
2017-04-19T14:06:33.504Z,47.1
2017-04-19T14:07:36.463Z,47.4
2017-04-19T14:08:39.369Z,47.2
2017-04-19T14:09:41.204Z,47.9
2017-04-19T14:10:43.997Z,48.5
2017-04-19T14:12:48.998Z,48.1
2017-04-19T14:13:51.336Z,48.9
2017-04-19T14:14:54.043Z,47.9
2017-04-19T14:15:56.380Z,48.4
2017-04-19T14:18:01.923Z,49.4
2017-04-19T14:19:04.257Z,49.3
2017-04-19T14:20:06.464Z,49.1
2017-04-19T14:21:09.180Z,49.6
2017-04-19T14:22:11.884Z,49.7
2017-04-19T14:23:14.525Z,49.9
2017-04-19T14:24:16.881Z,50.2
2017-04-19T14:25:19.684Z,49.1
2017-04-19T14:26:22.024Z,47.9
2017-04-19T14:27:24.398Z,48.1
2017-04-19T14:28:27.357Z,48.8
2017-04-19T14:29:29.694Z,48.1
2017-04-19T14:30:32.031Z,47.5
2017-04-19T14:31:34.875Z,47.9
2017-04-19T14:32:37.209Z,48.5
2017-04-19T14:33:40.299Z,51
2017-04-19T14:34:43.207Z,52
2017-04-19T14:35:44.904Z,53.8
2017-04-19T14:36:47.744Z,54.6
2017-04-19T14:37:50.084Z,55.1
2017-04-19T14:38:53.179Z,55